Air Navigation Services of Czech Republic  
Last data update:  20.04.2024 22:03:39 UTC česká verze
   METEO Page displayed:  20.04.2024 22:03:29 UTC  
vysvětlivky
METAR EDAC 202150Z AUTO 15002KT 9999 // FEW062/// OVC070/// 04/03 Q1018=
METAR EDDB 202150Z AUTO 07005KT CAVOK 02/M01 Q1020 NOSIG=
METAR EDDC 202150Z AUTO 16002KT 9999 BKN033 BKN042 BKN049 04/01 Q1018=
METAR EDDE 202150Z AUTO 23006KT 9999 -RA SCT016 03/01 Q1018=
METAR EDDF 202150Z AUTO 23006KT 9999 FEW027 BKN035 06/03 Q1019 TEMPO SHRA BKN030TCU=
METAR EDDM 202150Z AUTO 22005KT 9999 VCSH FEW///CB 02/01 Q1019 TEMPO SHRA SCT015CB=
METAR EDDN 202150Z AUTO VRB02KT 9999 FEW016 BKN043 05/02 Q1019=
METAR EDDP 202150Z AUTO 26002KT 9999 BKN021 BKN025 OVC032 04/03 Q1019 NOSIG=
METAR EDQM 202150Z AUTO 06002KT 2200 // VV/// 01/00 Q1017=
METAR EPBY 202130Z VRB02KT CAVOK M01/M03 Q1019=
METAR EPGD 202130Z 33004KT 300V360 9999 SCT030 M02/M04 Q1019=
METAR EPKK 202130Z 35010KT 9999 -RA OVC012 05/03 Q1014=
METAR EPKT 202130Z 34010KT 9999 -RA SCT004 OVC007 02/02 Q1015=
METAR EPLB 202130Z 03003KT CAVOK 07/05 Q1013=
METAR EPLL 202130Z 32006KT 290V360 6000 -DZ OVC005 01/00 Q1017=
METAR EPMO 202130Z 35009KT 9999 BKN019 04/01 Q1016=
METAR EPPO 202130Z 36004KT 9999 BKN046 03/M01 Q1019=
METAR EPRZ 202130Z 27003KT 260V320 CAVOK 04/03 Q1013=
METAR EPWA 202130Z 01008KT 340V040 9999 BKN012 04/02 Q1016 NOSIG=
METAR EPWR 202130Z 27006KT CAVOK 03/01 Q1019=
METAR LHBP 202200Z 32006KT CAVOK 05/04 Q1013 NOSIG=
METAR LHPR 202115Z AUTO 32017KT 290V350 9999 BKN017 BKN057 06/03 Q1015=
METAR LHSM 202115Z AUTO 34013KT 300V360 CAVOK 06/03 Q1015=
METAR LKBC 202200Z AUTO VRB01KT //// // NCD M00/M01 Q1018=
METAR LKCR 202200Z AUTO 00000KT 9999 FEW045 02/00 Q1018=
METAR LKCS 202200Z AUTO 18002KT CAVOK M00/M00 Q1018=
METAR LKCV 202200Z 29004KT 9999 FEW027 BKN033 03/01 Q1018 NOSIG RMK BLU BLU=
METAR LKKB 202200Z 20001KT CAVOK 01/M00 Q1018 RMK BLU=
METAR LKKU NIL
METAR LKKV 202200Z 11002KT 9999 SCT014 01/M00 Q1017=
METAR LKLN 202200Z AUTO VRB02KT 9999 // SCT055 OVC072 02/01 Q1019=
METAR LKMT 202200Z 01008KT 330V030 9999 -RA BKN008 OVC016 03/01 Q1017 NOSIG=
METAR LKNA 202200Z 31007KT 9999 BKN020 01/M01 Q1017 RMK WHT=
METAR LKPD 202200Z VRB02KT CAVOK 02/01 Q1018 RMK BLU=
METAR LKPJ 202200Z AUTO 35007KT 9999 // BKN023/// OVC029/// 04/01 Q1017=
METAR LKPR 202200Z 22004KT CAVOK 00/M02 Q1018 NOSIG=
METAR LKTB 202200Z 34010KT CAVOK 04/M01 Q1017 NOSIG=
METAR LKTH 202200Z AUTO 05006KT 360V110 9999 FEW011 BKN190 01/M02 Q1016=
METAR LKVO NIL
METAR LOWG 202150Z AUTO 35004KT 9999 NCD 05/M01 Q1016=
METAR LOWI 202150Z AUTO 10006KT 070V130 9999 FEW013 BKN050 03/01 Q1019=
METAR LOWK 202150Z AUTO VRB01KT 9999 FEW070 03/M02 Q1016=
METAR LOWL 202150Z AUTO 27005KT 9999 FEW015 SCT060 03/02 Q1019=
METAR LOWS 202150Z AUTO 15004KT 9999 FEW028 BKN032 02/01 Q1019=
METAR LOWW 202150Z 32013KT 9999 FEW030 BKN050 05/01 Q1017 NOSIG=
METAR LOXT NIL
METAR LOXZ NIL
METAR LZIB 202200Z 31011KT 9999 FEW018 SCT047 06/03 Q1016 NOSIG=
METAR LZKZ 202200Z 04003KT CAVOK 03/01 Q1012 NOSIG=
METAR LZMC 202100Z 35008KT 7000 -RA FEW005 BKN016 OVC020 04/03 Q1017=
METAR LZPP 202130Z AUTO 34012KT 9999 FEW027/// 04/02 Q1015=
METAR LZSL 202100Z 00000KT 9999 FEW005 02/01 Q1013=
METAR LZTT 202200Z 26004KT 9999 FEW016 SCT020 01/00 Q1011=
METAR LZZI 202130Z 05004KT 010V080 9999 SCT028 BKN051 04/01 Q1015=